Estación de Nueva Imperial

Ultimos registro cada 15 minutos 52
Estación Fecha / Hora Temperatura Humedad Lluvia Velocidad Dirección Radiación Presion
52 Nueva Imperial 03-05-2026 12:45 10,5 97 0 0,7 45 95,6 1007,4
51 Nueva Imperial 03-05-2026 12:30 10,4 97,2 0 0,7 25 75,6 1007,7
50 Nueva Imperial 03-05-2026 12:15 10,3 97,6 0 0,3 52 90,6 1007,5
49 Nueva Imperial 03-05-2026 12:00 9,7 97,6 0 0,7 73 81,9 1007,4
48 Nueva Imperial 03-05-2026 11:45 9,5 97,8 0 0,7 52 51,9 1007,4
47 Nueva Imperial 03-05-2026 11:30 9,3 97,7 0 0,3 39 54,4 1007
46 Nueva Imperial 03-05-2026 11:15 9,2 97,8 0 0,7 22 50,6 1007
45 Nueva Imperial 03-05-2026 11:00 9,2 97,7 0 0,7 3 58,1 1007,2
44 Nueva Imperial 03-05-2026 10:45 9,2 97,7 0,2 0,7 337 59,4 1007,2
43 Nueva Imperial 03-05-2026 10:30 9,1 97,7 0 0,7 13 56,9 1006,9
42 Nueva Imperial 03-05-2026 10:15 8,9 97,8 0 0,7 4 45,6 1006,6
41 Nueva Imperial 03-05-2026 10:00 8,7 97,7 0 1 17 41,9 1006,4
40 Nueva Imperial 03-05-2026 09:45 8,8 97,8 0 0,7 3 35,6 1006,3
39 Nueva Imperial 03-05-2026 09:30 8,7 97,7 0 0,7 55 21,9 1006,2
38 Nueva Imperial 03-05-2026 09:15 8,3 97,6 0 1 73 45,6 1006,3
37 Nueva Imperial 03-05-2026 09:00 7,9 97,5 0 0,7 76 23,1 1006,4
36 Nueva Imperial 03-05-2026 08:45 7,4 97,4 0,2 0,7 84 16,9 1006,3
35 Nueva Imperial 03-05-2026 08:30 7,1 97,1 0 0,3 83 18,1 1006,4
34 Nueva Imperial 03-05-2026 08:15 7 96,8 0 0 83 13,1 1006,3
33 Nueva Imperial 03-05-2026 08:00 7 96,6 0 0 83 5,6 1006,2
32 Nueva Imperial 03-05-2026 07:45 6,9 96,3 0 0 83 0,6 1006
31 Nueva Imperial 03-05-2026 07:30 6,8 96,1 0 0,3 142 0,6 1005,8
30 Nueva Imperial 03-05-2026 07:15 6,9 95,9 0 0 128 0,6 1006,1
29 Nueva Imperial 03-05-2026 07:00 6,7 95,8 0 0 88 0,6 1005,7
28 Nueva Imperial 03-05-2026 06:45 6,5 96,2 0 0,7 86 0,6 1005,6
27 Nueva Imperial 03-05-2026 06:30 6,4 96,6 0 1 73 0,6 1005,8
26 Nueva Imperial 03-05-2026 06:15 6,3 97,2 0,2 0,7 83 0,6 1006,1
25 Nueva Imperial 03-05-2026 06:00 5,9 97,4 0 0 84 0,6 1006,2
24 Nueva Imperial 03-05-2026 05:45 5,8 97,4 0 0 84 0,6 1006,4
23 Nueva Imperial 03-05-2026 05:30 5,6 97,5 0 0 84 0,6 1006,5
22 Nueva Imperial 03-05-2026 05:15 5,5 97,4 0 0 84 0,6 1006,7
21 Nueva Imperial 03-05-2026 05:00 5,4 97,4 0 0 84 0,6 1006,8
20 Nueva Imperial 03-05-2026 04:45 5,7 97,4 0 0 84 0,6 1006,8
19 Nueva Imperial 03-05-2026 04:30 5,6 97,5 0 0 84 0,6 1006,8
18 Nueva Imperial 03-05-2026 04:15 5,8 97,6 0 0 84 0,6 1007
17 Nueva Imperial 03-05-2026 04:00 5,7 97,6 0 0 84 0,6 1007,2
16 Nueva Imperial 03-05-2026 03:45 5,5 97,5 0 0 84 0,6 1007,6
15 Nueva Imperial 03-05-2026 03:30 5,6 97,5 0 0 84 0,6 1007,8
14 Nueva Imperial 03-05-2026 03:15 5,7 97,5 0,2 0 84 0,6 1008
13 Nueva Imperial 03-05-2026 03:00 5,6 97,6 0 0 84 0,6 1007,7
12 Nueva Imperial 03-05-2026 02:45 5,5 97,4 0 0 84 0,6 1007,9
11 Nueva Imperial 03-05-2026 02:30 5,4 97,5 0 0 84 0,6 1008,2
10 Nueva Imperial 03-05-2026 02:15 5,2 97,3 0 0 84 0,6 1007,9
9 Nueva Imperial 03-05-2026 02:00 5,2 97,3 0 0 84 0,6 1008
8 Nueva Imperial 03-05-2026 01:45 5,1 97,3 0 0 84 0,6 1008,3
7 Nueva Imperial 03-05-2026 01:30 4,8 97,3 0 0 84 0,6 1008,2
6 Nueva Imperial 03-05-2026 01:15 5 97 0 0 84 0,6 1008,2
5 Nueva Imperial 03-05-2026 01:00 5,4 97,1 0 0 84 0,6 1008,2
4 Nueva Imperial 03-05-2026 00:45 5,2 97,2 0 0 84 0,6 1008,3
3 Nueva Imperial 03-05-2026 00:30 5,1 97,1 0,2 0 84 0,6 1008,5
2 Nueva Imperial 03-05-2026 00:15 4,6 96,8 0 0 84 0,6 1008,5
1 Nueva Imperial 03-05-2026 00:00 4,8 97 0 0 84 0,6 1008,7